sensor_id;sensor_type;location;lat;lon;timestamp;P1;durP1;ratioP1;P2;durP2;ratioP2
1887;SDS011;944;51.574;6.980;2022-08-14T00:00:53;4.70;;;4.13;;
1887;SDS011;944;51.574;6.980;2022-08-14T00:06:39;4.53;;;4.10;;
1887;SDS011;944;51.574;6.980;2022-08-14T00:09:27;9.10;;;4.80;;
1887;SDS011;944;51.574;6.980;2022-08-14T00:22:23;8.90;;;4.93;;
1887;SDS011;944;51.574;6.980;2022-08-14T00:25:10;6.93;;;5.20;;
1887;SDS011;944;51.574;6.980;2022-08-14T00:27:47;22.03;;;6.57;;
1887;SDS011;944;51.574;6.980;2022-08-14T00:34:10;7.93;;;4.80;;
1887;SDS011;944;51.574;6.980;2022-08-14T00:37:01;6.40;;;4.30;;
1887;SDS011;944;51.574;6.980;2022-08-14T00:43:05;5.53;;;4.70;;
1887;SDS011;944;51.574;6.980;2022-08-14T00:55:27;6.10;;;4.13;;
1887;SDS011;944;51.574;6.980;2022-08-14T00:58:04;4.83;;;4.30;;
1887;SDS011;944;51.574;6.980;2022-08-14T01:01:04;8.20;;;4.63;;
1887;SDS011;944;51.574;6.980;2022-08-14T01:03:52;8.10;;;4.83;;
1887;SDS011;944;51.574;6.980;2022-08-14T01:06:24;5.40;;;4.80;;
1887;SDS011;944;51.574;6.980;2022-08-14T01:09:16;4.77;;;4.23;;
1887;SDS011;944;51.574;6.980;2022-08-14T01:11:51;5.93;;;5.00;;
1887;SDS011;944;51.574;6.980;2022-08-14T01:14:47;9.40;;;5.20;;
1887;SDS011;944;51.574;6.980;2022-08-14T01:17:19;9.57;;;4.83;;
1887;SDS011;944;51.574;6.980;2022-08-14T01:20:10;6.00;;;5.07;;
1887;SDS011;944;51.574;6.980;2022-08-14T01:23:02;7.90;;;5.00;;
1887;SDS011;944;51.574;6.980;2022-08-14T01:25:37;7.20;;;4.87;;
1887;SDS011;944;51.574;6.980;2022-08-14T01:28:29;7.63;;;5.20;;
1887;SDS011;944;51.574;6.980;2022-08-14T01:31:18;7.93;;;5.13;;
1887;SDS011;944;51.574;6.980;2022-08-14T01:33:50;5.63;;;5.03;;
1887;SDS011;944;51.574;6.980;2022-08-14T01:36:24;6.13;;;5.07;;
1887;SDS011;944;51.574;6.980;2022-08-14T01:38:59;6.70;;;5.40;;
1887;SDS011;944;51.574;6.980;2022-08-14T01:41:30;7.83;;;4.87;;
1887;SDS011;944;51.574;6.980;2022-08-14T01:43:59;8.60;;;5.43;;
1887;SDS011;944;51.574;6.980;2022-08-14T01:46:37;5.37;;;4.90;;
1887;SDS011;944;51.574;6.980;2022-08-14T01:49:10;8.73;;;4.73;;
1887;SDS011;944;51.574;6.980;2022-08-14T01:51:40;6.50;;;5.30;;
1887;SDS011;944;51.574;6.980;2022-08-14T01:54:12;6.73;;;5.10;;
1887;SDS011;944;51.574;6.980;2022-08-14T01:56:42;6.00;;;4.87;;
1887;SDS011;944;51.574;6.980;2022-08-14T01:59:17;8.80;;;5.30;;
1887;SDS011;944;51.574;6.980;2022-08-14T02:01:52;6.47;;;5.47;;
1887;SDS011;944;51.574;6.980;2022-08-14T02:04:35;12.93;;;5.13;;
1887;SDS011;944;51.574;6.980;2022-08-14T02:07:07;8.67;;;5.27;;
1887;SDS011;944;51.574;6.980;2022-08-14T02:09:38;6.60;;;5.70;;
1887;SDS011;944;51.574;6.980;2022-08-14T02:12:07;8.27;;;5.33;;
1887;SDS011;944;51.574;6.980;2022-08-14T02:14:35;5.90;;;5.10;;
1887;SDS011;944;51.574;6.980;2022-08-14T02:17:10;6.83;;;5.47;;
1887;SDS011;944;51.574;6.980;2022-08-14T02:19:37;7.37;;;5.30;;
1887;SDS011;944;51.574;6.980;2022-08-14T02:22:09;7.40;;;5.80;;
1887;SDS011;944;51.574;6.980;2022-08-14T02:24:44;6.20;;;5.40;;
1887;SDS011;944;51.574;6.980;2022-08-14T02:27:12;6.50;;;4.90;;
1887;SDS011;944;51.574;6.980;2022-08-14T02:29:46;7.00;;;5.50;;
1887;SDS011;944;51.574;6.980;2022-08-14T02:32:21;8.33;;;5.43;;
1887;SDS011;944;51.574;6.980;2022-08-14T02:34:56;8.23;;;5.97;;
1887;SDS011;944;51.574;6.980;2022-08-14T02:37:31;10.20;;;5.90;;
1887;SDS011;944;51.574;6.980;2022-08-14T02:40:08;5.47;;;4.87;;
1887;SDS011;944;51.574;6.980;2022-08-14T02:42:44;8.30;;;6.10;;
1887;SDS011;944;51.574;6.980;2022-08-14T02:45:14;8.20;;;5.30;;
1887;SDS011;944;51.574;6.980;2022-08-14T02:47:49;7.37;;;5.73;;
1887;SDS011;944;51.574;6.980;2022-08-14T02:50:21;6.60;;;5.57;;
1887;SDS011;944;51.574;6.980;2022-08-14T02:52:53;8.47;;;5.70;;
1887;SDS011;944;51.574;6.980;2022-08-14T02:55:28;9.13;;;5.90;;
1887;SDS011;944;51.574;6.980;2022-08-14T02:58:10;7.43;;;5.73;;
1887;SDS011;944;51.574;6.980;2022-08-14T03:03:11;9.30;;;5.80;;
1887;SDS011;944;51.574;6.980;2022-08-14T03:04:10;8.43;;;6.13;;
1887;SDS011;944;51.574;6.980;2022-08-14T03:06:40;10.47;;;6.73;;
1887;SDS011;944;51.574;6.980;2022-08-14T03:09:10;9.27;;;6.43;;
1887;SDS011;944;51.574;6.980;2022-08-14T03:11:43;7.23;;;6.40;;
1887;SDS011;944;51.574;6.980;2022-08-14T03:14:14;7.77;;;6.97;;
1887;SDS011;944;51.574;6.980;2022-08-14T03:16:46;10.47;;;6.87;;
1887;SDS011;944;51.574;6.980;2022-08-14T03:19:17;11.53;;;7.10;;
1887;SDS011;944;51.574;6.980;2022-08-14T03:21:47;8.03;;;7.10;;
1887;SDS011;944;51.574;6.980;2022-08-14T03:24:18;12.33;;;6.70;;
1887;SDS011;944;51.574;6.980;2022-08-14T03:26:48;7.77;;;6.37;;
1887;SDS011;944;51.574;6.980;2022-08-14T03:29:22;8.60;;;6.77;;
1887;SDS011;944;51.574;6.980;2022-08-14T03:31:57;7.00;;;6.30;;
1887;SDS011;944;51.574;6.980;2022-08-14T03:34:37;9.17;;;6.60;;
1887;SDS011;944;51.574;6.980;2022-08-14T03:37:12;9.00;;;6.40;;
1887;SDS011;944;51.574;6.980;2022-08-14T03:39:42;11.30;;;6.30;;
1887;SDS011;944;51.574;6.980;2022-08-14T03:42:14;11.43;;;7.47;;
1887;SDS011;944;51.574;6.980;2022-08-14T03:44:41;8.23;;;6.70;;
1887;SDS011;944;51.574;6.980;2022-08-14T03:47:22;13.17;;;6.80;;
1887;SDS011;944;51.574;6.980;2022-08-14T03:50:07;7.03;;;6.33;;
1887;SDS011;944;51.574;6.980;2022-08-14T03:52:43;7.73;;;6.77;;
1887;SDS011;944;51.574;6.980;2022-08-14T03:55:16;9.37;;;7.30;;
1887;SDS011;944;51.574;6.980;2022-08-14T03:57:46;8.67;;;7.20;;
1887;SDS011;944;51.574;6.980;2022-08-14T04:00:33;7.83;;;7.03;;
1887;SDS011;944;51.574;6.980;2022-08-14T04:03:05;7.97;;;6.70;;
1887;SDS011;944;51.574;6.980;2022-08-14T04:05:36;7.17;;;6.47;;
1887;SDS011;944;51.574;6.980;2022-08-14T04:08:07;11.97;;;7.23;;
1887;SDS011;944;51.574;6.980;2022-08-14T04:10:38;11.30;;;7.60;;
1887;SDS011;944;51.574;6.980;2022-08-14T04:13:12;12.60;;;7.47;;
1887;SDS011;944;51.574;6.980;2022-08-14T04:15:53;15.73;;;7.80;;
1887;SDS011;944;51.574;6.980;2022-08-14T04:18:44;8.67;;;7.30;;
1887;SDS011;944;51.574;6.980;2022-08-14T04:21:29;9.93;;;7.73;;
1887;SDS011;944;51.574;6.980;2022-08-14T04:24:15;10.37;;;8.63;;
1887;SDS011;944;51.574;6.980;2022-08-14T04:26:59;12.80;;;8.70;;
1887;SDS011;944;51.574;6.980;2022-08-14T04:29:34;11.83;;;8.27;;
1887;SDS011;944;51.574;6.980;2022-08-14T04:32:03;12.00;;;7.93;;
1887;SDS011;944;51.574;6.980;2022-08-14T04:34:32;9.77;;;8.27;;
1887;SDS011;944;51.574;6.980;2022-08-14T04:37:01;11.47;;;7.83;;
1887;SDS011;944;51.574;6.980;2022-08-14T04:39:46;12.87;;;8.20;;
1887;SDS011;944;51.574;6.980;2022-08-14T04:42:31;12.87;;;8.70;;
1887;SDS011;944;51.574;6.980;2022-08-14T04:45:18;11.40;;;8.70;;
1887;SDS011;944;51.574;6.980;2022-08-14T04:47:47;12.70;;;8.00;;
1887;SDS011;944;51.574;6.980;2022-08-14T04:50:34;9.13;;;8.13;;
1887;SDS011;944;51.574;6.980;2022-08-14T04:53:04;9.00;;;7.23;;
1887;SDS011;944;51.574;6.980;2022-08-14T04:55:40;9.00;;;7.50;;
1887;SDS011;944;51.574;6.980;2022-08-14T04:58:13;8.23;;;7.43;;
1887;SDS011;944;51.574;6.980;2022-08-14T05:00:43;9.17;;;7.60;;
1887;SDS011;944;51.574;6.980;2022-08-14T05:03:17;11.37;;;8.20;;
1887;SDS011;944;51.574;6.980;2022-08-14T05:05:45;8.40;;;7.00;;
1887;SDS011;944;51.574;6.980;2022-08-14T05:08:15;8.97;;;7.70;;
1887;SDS011;944;51.574;6.980;2022-08-14T05:11:24;9.60;;;8.17;;
1887;SDS011;944;51.574;6.980;2022-08-14T05:14:01;8.90;;;7.93;;
1887;SDS011;944;51.574;6.980;2022-08-14T05:16:32;8.90;;;7.70;;
1887;SDS011;944;51.574;6.980;2022-08-14T05:19:04;12.30;;;8.73;;
1887;SDS011;944;51.574;6.980;2022-08-14T05:21:40;8.70;;;7.80;;
1887;SDS011;944;51.574;6.980;2022-08-14T05:24:07;9.37;;;8.37;;
1887;SDS011;944;51.574;6.980;2022-08-14T05:26:40;11.97;;;9.20;;
1887;SDS011;944;51.574;6.980;2022-08-14T05:29:12;11.60;;;8.83;;
1887;SDS011;944;51.574;6.980;2022-08-14T05:31:42;12.40;;;9.20;;
1887;SDS011;944;51.574;6.980;2022-08-14T05:34:09;10.63;;;9.53;;
1887;SDS011;944;51.574;6.980;2022-08-14T05:36:38;12.63;;;9.03;;
1887;SDS011;944;51.574;6.980;2022-08-14T05:39:06;11.83;;;9.30;;
1887;SDS011;944;51.574;6.980;2022-08-14T05:41:38;19.20;;;8.70;;
1887;SDS011;944;51.574;6.980;2022-08-14T05:44:06;10.80;;;8.60;;
1887;SDS011;944;51.574;6.980;2022-08-14T05:46:33;12.63;;;8.83;;
1887;SDS011;944;51.574;6.980;2022-08-14T05:49:05;10.93;;;9.03;;
1887;SDS011;944;51.574;6.980;2022-08-14T05:51:32;12.33;;;9.37;;
1887;SDS011;944;51.574;6.980;2022-08-14T05:53:59;12.57;;;9.77;;
1887;SDS011;944;51.574;6.980;2022-08-14T05:56:27;12.77;;;10.37;;
1887;SDS011;944;51.574;6.980;2022-08-14T05:58:54;17.53;;;9.67;;
1887;SDS011;944;51.574;6.980;2022-08-14T06:01:21;10.37;;;9.27;;
1887;SDS011;944;51.574;6.980;2022-08-14T06:03:48;10.73;;;8.43;;
1887;SDS011;944;51.574;6.980;2022-08-14T06:06:18;12.47;;;9.00;;
1887;SDS011;944;51.574;6.980;2022-08-14T06:08:45;8.83;;;7.93;;
1887;SDS011;944;51.574;6.980;2022-08-14T06:11:12;15.67;;;9.80;;
1887;SDS011;944;51.574;6.980;2022-08-14T06:13:44;10.57;;;8.60;;
1887;SDS011;944;51.574;6.980;2022-08-14T06:16:13;9.83;;;8.17;;
1887;SDS011;944;51.574;6.980;2022-08-14T06:18:44;11.10;;;7.63;;
1887;SDS011;944;51.574;6.980;2022-08-14T06:21:12;13.67;;;8.53;;
1887;SDS011;944;51.574;6.980;2022-08-14T06:23:43;15.00;;;8.70;;
1887;SDS011;944;51.574;6.980;2022-08-14T06:26:12;9.60;;;8.60;;
1887;SDS011;944;51.574;6.980;2022-08-14T06:28:41;11.53;;;8.60;;
1887;SDS011;944;51.574;6.980;2022-08-14T06:31:08;17.57;;;9.00;;
1887;SDS011;944;51.574;6.980;2022-08-14T06:33:38;12.07;;;8.93;;
1887;SDS011;944;51.574;6.980;2022-08-14T06:36:07;11.97;;;9.40;;
1887;SDS011;944;51.574;6.980;2022-08-14T06:38:36;9.50;;;8.60;;
1887;SDS011;944;51.574;6.980;2022-08-14T06:41:09;9.67;;;8.77;;
1887;SDS011;944;51.574;6.980;2022-08-14T06:43:41;12.73;;;9.53;;
1887;SDS011;944;51.574;6.980;2022-08-14T06:46:14;11.80;;;9.10;;
1887;SDS011;944;51.574;6.980;2022-08-14T06:48:46;10.90;;;8.00;;
1887;SDS011;944;51.574;6.980;2022-08-14T06:51:16;11.10;;;8.13;;
1887;SDS011;944;51.574;6.980;2022-08-14T06:53:45;9.60;;;8.60;;
1887;SDS011;944;51.574;6.980;2022-08-14T06:56:21;14.93;;;8.37;;
1887;SDS011;944;51.574;6.980;2022-08-14T06:58:49;18.50;;;8.63;;
1887;SDS011;944;51.574;6.980;2022-08-14T07:01:27;12.87;;;8.33;;
1887;SDS011;944;51.574;6.980;2022-08-14T07:04:12;12.70;;;8.50;;
1887;SDS011;944;51.574;6.980;2022-08-14T07:06:59;8.20;;;7.20;;
1887;SDS011;944;51.574;6.980;2022-08-14T07:09:32;11.57;;;7.40;;
1887;SDS011;944;51.574;6.980;2022-08-14T07:12:01;7.63;;;6.93;;
1887;SDS011;944;51.574;6.980;2022-08-14T07:14:33;7.93;;;7.13;;
1887;SDS011;944;51.574;6.980;2022-08-14T07:17:15;7.70;;;6.30;;
1887;SDS011;944;51.574;6.980;2022-08-14T07:19:50;7.67;;;6.30;;
1887;SDS011;944;51.574;6.980;2022-08-14T07:22:19;7.73;;;6.07;;
1887;SDS011;944;51.574;6.980;2022-08-14T07:24:49;7.50;;;6.07;;
1887;SDS011;944;51.574;6.980;2022-08-14T07:27:30;8.70;;;7.00;;
1887;SDS011;944;51.574;6.980;2022-08-14T07:30:01;14.80;;;5.87;;
1887;SDS011;944;51.574;6.980;2022-08-14T07:32:43;8.53;;;5.80;;
1887;SDS011;944;51.574;6.980;2022-08-14T07:35:14;8.83;;;6.87;;
1887;SDS011;944;51.574;6.980;2022-08-14T07:37:47;9.27;;;6.50;;
1887;SDS011;944;51.574;6.980;2022-08-14T07:40:19;7.67;;;6.40;;
1887;SDS011;944;51.574;6.980;2022-08-14T07:45:56;7.50;;;6.60;;
1887;SDS011;944;51.574;6.980;2022-08-14T07:48:46;8.00;;;6.83;;
1887;SDS011;944;51.574;6.980;2022-08-14T07:51:35;8.73;;;6.50;;
1887;SDS011;944;51.574;6.980;2022-08-14T07:54:20;7.33;;;6.40;;
1887;SDS011;944;51.574;6.980;2022-08-14T07:56:58;7.40;;;6.70;;
1887;SDS011;944;51.574;6.980;2022-08-14T08:05:56;8.73;;;5.83;;
1887;SDS011;944;51.574;6.980;2022-08-14T08:10:23;6.87;;;6.27;;
1887;SDS011;944;51.574;6.980;2022-08-14T08:36:48;8.23;;;6.30;;
1887;SDS011;944;51.574;6.980;2022-08-14T08:39:08;9.93;;;6.40;;
1887;SDS011;944;51.574;6.980;2022-08-14T08:49:18;10.37;;;5.80;;
1887;SDS011;944;51.574;6.980;2022-08-14T08:56:07;8.27;;;5.10;;
1887;SDS011;944;51.574;6.980;2022-08-14T08:59:53;10.25;;;6.18;;
1887;SDS011;944;51.574;6.980;2022-08-14T09:06:03;6.17;;;5.30;;
1887;SDS011;944;51.574;6.980;2022-08-14T09:11:28;7.57;;;5.93;;
1887;SDS011;944;51.574;6.980;2022-08-14T09:18:37;5.90;;;5.28;;
1887;SDS011;944;51.574;6.980;2022-08-14T09:23:27;9.60;;;4.97;;
1887;SDS011;944;51.574;6.980;2022-08-14T09:25:55;12.60;;;4.47;;
1887;SDS011;944;51.574;6.980;2022-08-14T09:28:32;7.28;;;5.47;;
1887;SDS011;944;51.574;6.980;2022-08-14T09:31:02;7.30;;;4.85;;
1887;SDS011;944;51.574;6.980;2022-08-14T09:34:17;6.63;;;5.00;;
1887;SDS011;944;51.574;6.980;2022-08-14T09:36:51;8.20;;;4.93;;
1887;SDS011;944;51.574;6.980;2022-08-14T09:40:02;4.65;;;4.20;;
1887;SDS011;944;51.574;6.980;2022-08-14T09:42:50;7.77;;;4.60;;
1887;SDS011;944;51.574;6.980;2022-08-14T09:45:35;4.23;;;3.83;;
1887;SDS011;944;51.574;6.980;2022-08-14T09:51:23;5.50;;;4.93;;
1887;SDS011;944;51.574;6.980;2022-08-14T09:54:04;5.87;;;4.90;;
1887;SDS011;944;51.574;6.980;2022-08-14T09:56:49;5.37;;;4.70;;
1887;SDS011;944;51.574;6.980;2022-08-14T10:08:16;9.03;;;5.07;;
1887;SDS011;944;51.574;6.980;2022-08-14T10:19:02;11.80;;;6.20;;
1887;SDS011;944;51.574;6.980;2022-08-14T10:22:22;6.20;;;5.00;;
1887;SDS011;944;51.574;6.980;2022-08-14T10:24:54;5.67;;;5.07;;
1887;SDS011;944;51.574;6.980;2022-08-14T10:27:24;6.80;;;5.07;;
1887;SDS011;944;51.574;6.980;2022-08-14T10:30:10;5.37;;;4.83;;
1887;SDS011;944;51.574;6.980;2022-08-14T10:33:07;8.07;;;5.33;;
1887;SDS011;944;51.574;6.980;2022-08-14T10:35:39;6.87;;;5.20;;
1887;SDS011;944;51.574;6.980;2022-08-14T10:38:41;12.50;;;5.27;;
1887;SDS011;944;51.574;6.980;2022-08-14T10:41:32;7.30;;;4.70;;
1887;SDS011;944;51.574;6.980;2022-08-14T10:44:05;11.10;;;5.23;;
1887;SDS011;944;51.574;6.980;2022-08-14T10:46:42;5.30;;;4.77;;
1887;SDS011;944;51.574;6.980;2022-08-14T10:49:20;6.20;;;5.60;;
1887;SDS011;944;51.574;6.980;2022-08-14T10:51:54;5.63;;;5.10;;
1887;SDS011;944;51.574;6.980;2022-08-14T10:54:39;7.60;;;5.37;;
1887;SDS011;944;51.574;6.980;2022-08-14T10:57:13;5.20;;;4.70;;
1887;SDS011;944;51.574;6.980;2022-08-14T10:59:50;9.33;;;4.70;;
1887;SDS011;944;51.574;6.980;2022-08-14T11:02:25;6.40;;;5.33;;
1887;SDS011;944;51.574;6.980;2022-08-14T11:05:08;6.93;;;5.97;;
1887;SDS011;944;51.574;6.980;2022-08-14T11:07:41;5.70;;;5.20;;
1887;SDS011;944;51.574;6.980;2022-08-14T11:10:40;6.70;;;4.60;;
1887;SDS011;944;51.574;6.980;2022-08-14T11:13:47;5.23;;;4.80;;
1887;SDS011;944;51.574;6.980;2022-08-14T11:17:21;5.20;;;4.70;;
1887;SDS011;944;51.574;6.980;2022-08-14T11:21:05;6.20;;;4.97;;
1887;SDS011;944;51.574;6.980;2022-08-14T11:23:53;5.60;;;4.80;;
1887;SDS011;944;51.574;6.980;2022-08-14T11:26:55;6.70;;;4.90;;
1887;SDS011;944;51.574;6.980;2022-08-14T11:30:04;5.17;;;4.40;;
1887;SDS011;944;51.574;6.980;2022-08-14T11:33:38;6.53;;;5.13;;
1887;SDS011;944;51.574;6.980;2022-08-14T11:36:31;4.90;;;4.50;;
1887;SDS011;944;51.574;6.980;2022-08-14T11:39:28;5.33;;;4.83;;
1887;SDS011;944;51.574;6.980;2022-08-14T11:42:55;5.97;;;4.50;;
1887;SDS011;944;51.574;6.980;2022-08-14T11:52:59;13.77;;;5.10;;
1887;SDS011;944;51.574;6.980;2022-08-14T12:00:16;5.17;;;4.43;;
1887;SDS011;944;51.574;6.980;2022-08-14T13:22:09;4.73;;;4.33;;
1887;SDS011;944;51.574;6.980;2022-08-14T13:28:25;5.30;;;4.80;;
1887;SDS011;944;51.574;6.980;2022-08-14T13:48:26;8.40;;;5.30;;
1887;SDS011;944;51.574;6.980;2022-08-14T13:55:17;4.97;;;4.60;;
1887;SDS011;944;51.574;6.980;2022-08-14T14:55:12;5.33;;;4.87;;
1887;SDS011;944;51.574;6.980;2022-08-14T15:06:31;6.30;;;4.67;;
1887;SDS011;944;51.574;6.980;2022-08-14T15:54:30;5.20;;;4.70;;
1887;SDS011;944;51.574;6.980;2022-08-14T16:05:39;5.67;;;4.87;;
1887;SDS011;944;51.574;6.980;2022-08-14T16:12:20;7.10;;;4.57;;
1887;SDS011;944;51.574;6.980;2022-08-14T16:15:12;4.80;;;4.40;;
1887;SDS011;944;51.574;6.980;2022-08-14T16:17:55;8.57;;;5.10;;
1887;SDS011;944;51.574;6.980;2022-08-14T16:46:30;7.00;;;4.80;;
1887;SDS011;944;51.574;6.980;2022-08-14T16:49:43;5.27;;;4.40;;
1887;SDS011;944;51.574;6.980;2022-08-14T17:09:51;6.70;;;5.23;;
1887;SDS011;944;51.574;6.980;2022-08-14T17:12:49;5.10;;;4.60;;
1887;SDS011;944;51.574;6.980;2022-08-14T17:20:27;7.90;;;5.20;;
1887;SDS011;944;51.574;6.980;2022-08-14T17:23:47;8.30;;;5.70;;
1887;SDS011;944;51.574;6.980;2022-08-14T17:26:44;12.70;;;4.67;;
1887;SDS011;944;51.574;6.980;2022-08-14T17:29:37;4.90;;;4.50;;
1887;SDS011;944;51.574;6.980;2022-08-14T17:33:43;5.20;;;4.40;;
